PATA/TAL METAR and TAF weather

Enter ICAO airport designator
Station Type Date Time Source
PATA METAR 2020/07/11 17:52 UTC NOAA

PATA 111752Z 07008KT 10SM CLR 17/03 A2981 RMK AO2 SLP096 T01720033 10172 20056 58004


Station Type Date Time Source
PATA Decoded METAR 2020/07/11 17:52 UTC NOAA

TANANA CALHOUN MEMORIAL AIRPORT , AK, United States (PATA) 65-10N 152-06W 67M
Jul 11, 2020 - 01:52 PM EDT / 2020.07.11 1752 UTC
Wind: from the ENE (070 degrees) at 9 MPH (8 KT):0
Visibility: 10 mile(s):0
Sky conditions: clear
Temperature: 63.0 F (17.2 C)
Dew Point: 37.9 F (3.3 C)
Relative Humidity: 39%
Pressure (altimeter): 29.81 in. Hg (1009 hPa)
Pressure tendency: 0.01 inches (0.4 hPa) lower than three hours ago
ob: PATA 111752Z 07008KT 10SM CLR 17/03 A2981 RMK AO2 SLP096 T01720033 10172 20056 58004
cycle: 18

Station Type Date Time Source
PATA TAF 2020/07/11 18:24 UTC NOAA

TAF PATA 111720Z 1118/1218 08008G18KT P6SM FEW050 SCT100
FM120600 VRB06KT P6SM FEW050 SCT100

Example: see airport list